This is the latest recevied weather packets stored in our database for station/object KF4CQ. If no packets are shown the sender has not sent any weather packets the latest 10 day(s).
| Time | Temp. | Humidity | Pressure | Rain* | Wind** | Luminosity | Snow |
|---|---|---|---|---|---|---|---|
| 1778171256 | 32.78° C | 51% | 1016 hPa | 0 mm | - | 752 W/m² | - |
| 1778170952 | 33.33° C | 51% | 1016.3 hPa | 0 mm | - | 741 W/m² | - |
| 1778170649 | 32.78° C | 51% | 1016.3 hPa | 0 mm | - | 734 W/m² | - |
| 1778170346 | 31.67° C | 52% | 1016.3 hPa | 0 mm | - | 727 W/m² | - |
| 1778170041 | 32.22° C | 51% | 1016.3 hPa | 0 mm | - | 721 W/m² | - |
| 1778169738 | 32.78° C | 51% | 1016.3 hPa | 0 mm | - | 708 W/m² | - |
| 1778169434 | 33.33° C | 49% | 1016.5 hPa | 0 mm | - | 698 W/m² | - |
| 1778169130 | 32.22° C | 52% | 1016.5 hPa | 0 mm | - | 689 W/m² | - |
| 1778168827 | 32.22° C | 51% | 1016.5 hPa | 0 mm | - | 683 W/m² | - |
| 1778168525 | 32.22° C | 53% | 1016.8 hPa | 0 mm | - | 674 W/m² | - |
| 1778168221 | 32.22° C | 51% | 1016.6 hPa | 0 mm | - | 662 W/m² | - |
| 1778167918 | 32.22° C | 52% | 1016.6 hPa | 0 mm | - | 651 W/m² | - |
| 1778167614 | 31.67° C | 54% | 1016.7 hPa | 0 mm | - | 640 W/m² | - |
| 1778167310 | 31.67° C | 54% | 1016.6 hPa | 0 mm | - | 627 W/m² | - |
| 1778167006 | 31.11° C | 55% | 1016.8 hPa | 0 mm | - | 617 W/m² | - |
| 1778166703 | 30.56° C | 56% | 1016.8 hPa | 0 mm | - | 602 W/m² | - |
| 1778166400 | 30.56° C | 57% | 1016.8 hPa | 0 mm | - | 587 W/m² | - |
| 1778166097 | 31.11° C | 57% | 1016.8 hPa | 0 mm | - | 579 W/m² | - |
| 1778165792 | 31.67° C | 57% | 1016.7 hPa | 0 mm | - | 563 W/m² | - |
| 1778165490 | 30.56° C | 60% | 1016.6 hPa | 0 mm | - | 550 W/m² | - |
| 1778165186 | 30.56° C | 61% | 1016.8 hPa | 0 mm | - | 536 W/m² | - |
| 1778164885 | 30° C | 60% | 1016.7 hPa | 0 mm | - | 522 W/m² | - |
| 1778164581 | 30.56° C | 60% | 1016.9 hPa | 0 mm | - | 509 W/m² | - |
| 1778164278 | 30° C | 62% | 1016.7 hPa | 0 mm | - | 494 W/m² | - |
| 1778163973 | 30° C | 60% | 1016.9 hPa | 0 mm | - | 478 W/m² | - |
* Rain latest hour (hover to see other rain measurements)
** Current wind speed in m/s (hover to see current wind gust speed)